sensor_id;sensor_type;location;lat;lon;timestamp;pressure;altitude;pressure_sealevel;temperature;humidity
38466;BME280;24244;51.950;5.902;2023-03-14T00:00:14;98776.81;;;12.49;77.98
38466;BME280;24244;51.950;5.902;2023-03-14T00:02:42;98780.28;;;12.49;78.11
38466;BME280;24244;51.950;5.902;2023-03-14T00:05:10;98774.97;;;12.49;78.29
38466;BME280;24244;51.950;5.902;2023-03-14T00:07:38;98780.28;;;12.49;78.20
38466;BME280;24244;51.950;5.902;2023-03-14T00:10:09;98773.34;;;12.48;78.49
38466;BME280;24244;51.950;5.902;2023-03-14T00:12:36;98774.16;;;12.49;78.13
38466;BME280;24244;51.950;5.902;2023-03-14T00:15:04;98780.53;;;12.48;78.48
38466;BME280;24244;51.950;5.902;2023-03-14T00:17:33;98778.91;;;12.47;78.43
38466;BME280;24244;51.950;5.902;2023-03-14T00:20:01;98782.63;;;12.46;78.63
38466;BME280;24244;51.950;5.902;2023-03-14T00:22:34;98788.19;;;12.44;78.83
38466;BME280;24244;51.950;5.902;2023-03-14T00:25:02;98790.31;;;12.42;79.03
38466;BME280;24244;51.950;5.902;2023-03-14T00:27:31;98791.84;;;12.38;79.13
38466;BME280;24244;51.950;5.902;2023-03-14T00:29:58;98787.84;;;12.36;79.36
38466;BME280;24244;51.950;5.902;2023-03-14T00:32:25;98789.94;;;12.34;79.43
38466;BME280;24244;51.950;5.902;2023-03-14T00:34:52;98790.97;;;12.33;79.30
38466;BME280;24244;51.950;5.902;2023-03-14T00:37:19;98773.88;;;12.29;78.97
38466;BME280;24244;51.950;5.902;2023-03-14T00:39:46;98789.88;;;12.29;79.33
38466;BME280;24244;51.950;5.902;2023-03-14T00:42:14;98786.63;;;12.27;79.01
38466;BME280;24244;51.950;5.902;2023-03-14T00:44:42;98781.78;;;12.24;78.75
38466;BME280;24244;51.950;5.902;2023-03-14T00:47:09;98798.81;;;12.23;78.89
38466;BME280;24244;51.950;5.902;2023-03-14T00:49:37;98797.47;;;12.20;78.93
38466;BME280;24244;51.950;5.902;2023-03-14T00:52:04;98804.88;;;12.18;78.75
38466;BME280;24244;51.950;5.902;2023-03-14T00:54:31;98794.47;;;12.16;78.71
38466;BME280;24244;51.950;5.902;2023-03-14T00:57:01;98789.88;;;12.12;78.76
38466;BME280;24244;51.950;5.902;2023-03-14T00:59:29;98796.50;;;12.09;79.02
38466;BME280;24244;51.950;5.902;2023-03-14T01:01:57;98793.03;;;12.09;78.49
38466;BME280;24244;51.950;5.902;2023-03-14T01:04:24;98790.06;;;12.05;78.65
38466;BME280;24244;51.950;5.902;2023-03-14T01:06:51;98797.47;;;12.03;78.85
38466;BME280;24244;51.950;5.902;2023-03-14T01:09:17;98798.28;;;12.04;78.67
38466;BME280;24244;51.950;5.902;2023-03-14T01:11:44;98798.75;;;12.01;78.36
38466;BME280;24244;51.950;5.902;2023-03-14T01:14:13;98802.50;;;12.00;78.38
38466;BME280;24244;51.950;5.902;2023-03-14T01:16:40;98800.06;;;11.98;78.36
38466;BME280;24244;51.950;5.902;2023-03-14T01:19:10;98800.31;;;11.97;78.09
38466;BME280;24244;51.950;5.902;2023-03-14T01:21:37;98796.81;;;11.96;78.09
38466;BME280;24244;51.950;5.902;2023-03-14T01:24:05;98802.38;;;11.95;77.89
38466;BME280;24244;51.950;5.902;2023-03-14T01:26:34;98800.78;;;11.94;78.17
38466;BME280;24244;51.950;5.902;2023-03-14T01:29:02;98806.09;;;11.94;77.85
38466;BME280;24244;51.950;5.902;2023-03-14T01:31:30;98806.38;;;11.92;77.90
38466;BME280;24244;51.950;5.902;2023-03-14T01:33:56;98803.94;;;11.91;77.84
38466;BME280;24244;51.950;5.902;2023-03-14T01:36:25;98803.13;;;11.90;77.43
38466;BME280;24244;51.950;5.902;2023-03-14T01:38:55;98809.50;;;11.89;77.48
38466;BME280;24244;51.950;5.902;2023-03-14T01:41:24;98804.19;;;11.89;77.37
38466;BME280;24244;51.950;5.902;2023-03-14T01:43:53;98813.44;;;11.87;77.56
38466;BME280;24244;51.950;5.902;2023-03-14T01:46:32;98813.72;;;11.85;77.26
38466;BME280;24244;51.950;5.902;2023-03-14T01:49:03;98811.03;;;11.85;77.50
38466;BME280;24244;51.950;5.902;2023-03-14T01:51:36;98799.59;;;11.85;77.51
38466;BME280;24244;51.950;5.902;2023-03-14T01:54:12;98798.19;;;11.82;77.28
38466;BME280;24244;51.950;5.902;2023-03-14T01:56:43;98799.00;;;11.83;77.12
38466;BME280;24244;51.950;5.902;2023-03-14T01:59:12;98787.56;;;11.82;77.08
38466;BME280;24244;51.950;5.902;2023-03-14T02:01:43;98790.22;;;11.82;77.12
38466;BME280;24244;51.950;5.902;2023-03-14T02:04:11;98790.22;;;11.82;77.34
38466;BME280;24244;51.950;5.902;2023-03-14T02:06:46;98783.03;;;11.83;77.29
38466;BME280;24244;51.950;5.902;2023-03-14T02:09:15;98778.75;;;11.82;77.12
38466;BME280;24244;51.950;5.902;2023-03-14T02:11:43;98780.06;;;11.79;77.07
38466;BME280;24244;51.950;5.902;2023-03-14T02:14:21;98780.06;;;11.79;77.42
38466;BME280;24244;51.950;5.902;2023-03-14T02:16:52;98788.16;;;11.72;77.68
38466;BME280;24244;51.950;5.902;2023-03-14T02:19:29;98794.22;;;11.68;77.69
38466;BME280;24244;51.950;5.902;2023-03-14T02:22:06;98787.19;;;11.62;78.21
38466;BME280;24244;51.950;5.902;2023-03-14T02:24:40;98795.09;;;11.57;78.39
38466;BME280;24244;51.950;5.902;2023-03-14T02:27:13;98793.97;;;11.53;78.82
38466;BME280;24244;51.950;5.902;2023-03-14T02:29:48;98788.09;;;11.51;78.88
38466;BME280;24244;51.950;5.902;2023-03-14T02:32:21;98792.50;;;11.45;79.38
38466;BME280;24244;51.950;5.902;2023-03-14T02:34:54;98795.41;;;11.44;79.28
38466;BME280;24244;51.950;5.902;2023-03-14T02:37:24;98797.50;;;11.42;79.40
38466;BME280;24244;51.950;5.902;2023-03-14T02:39:54;98792.41;;;11.40;79.46
38466;BME280;24244;51.950;5.902;2023-03-14T02:42:22;98783.06;;;11.37;79.61
38466;BME280;24244;51.950;5.902;2023-03-14T02:44:52;98779.84;;;11.35;79.43
38466;BME280;24244;51.950;5.902;2023-03-14T02:47:26;98777.19;;;11.35;79.84
38466;BME280;24244;51.950;5.902;2023-03-14T02:49:58;98775.81;;;11.33;79.92
38466;BME280;24244;51.950;5.902;2023-03-14T02:52:29;98770.72;;;11.31;79.85
38466;BME280;24244;51.950;5.902;2023-03-14T02:54:56;98770.94;;;11.30;80.14
38466;BME280;24244;51.950;5.902;2023-03-14T03:01:15;98783.03;;;11.21;79.75
38466;BME280;24244;51.950;5.902;2023-03-14T03:03:42;98775.28;;;11.19;79.84
38466;BME280;24244;51.950;5.902;2023-03-14T03:06:09;98775.75;;;11.16;80.13
38466;BME280;24244;51.950;5.902;2023-03-14T03:08:36;98770.13;;;11.13;80.21
38466;BME280;24244;51.950;5.902;2023-03-14T03:11:05;98766.88;;;11.11;80.42
38466;BME280;24244;51.950;5.902;2023-03-14T03:13:32;98762.88;;;11.08;80.41
38466;BME280;24244;51.950;5.902;2023-03-14T03:15:59;98750.63;;;11.07;80.54
38466;BME280;24244;51.950;5.902;2023-03-14T03:18:36;98756.41;;;11.04;80.37
38466;BME280;24244;51.950;5.902;2023-03-14T03:21:04;98755.59;;;11.04;80.43
38466;BME280;24244;51.950;5.902;2023-03-14T03:23:32;98753.97;;;11.03;80.65
38466;BME280;24244;51.950;5.902;2023-03-14T03:25:59;98748.91;;;11.01;80.49
38466;BME280;24244;51.950;5.902;2023-03-14T03:28:26;98752.84;;;10.98;80.55
38466;BME280;24244;51.950;5.902;2023-03-14T03:30:53;98746.94;;;10.96;80.77
38466;BME280;24244;51.950;5.902;2023-03-14T03:33:20;98750.66;;;10.95;80.93
38466;BME280;24244;51.950;5.902;2023-03-14T03:35:50;98747.19;;;10.95;80.86
38466;BME280;24244;51.950;5.902;2023-03-14T03:38:17;98746.13;;;10.96;80.44
38466;BME280;24244;51.950;5.902;2023-03-14T03:40:46;98742.66;;;10.95;80.84
38466;BME280;24244;51.950;5.902;2023-03-14T03:43:13;98737.63;;;10.94;80.50
38466;BME280;24244;51.950;5.902;2023-03-14T03:45:40;98732.31;;;10.94;80.58
38466;BME280;24244;51.950;5.902;2023-03-14T03:48:07;98743.97;;;10.93;80.96
38466;BME280;24244;51.950;5.902;2023-03-14T03:50:34;98743.97;;;10.93;80.72
38466;BME280;24244;51.950;5.902;2023-03-14T03:53:03;98732.75;;;10.91;80.81
38466;BME280;24244;51.950;5.902;2023-03-14T03:55:31;98743.16;;;10.92;80.93
38466;BME280;24244;51.950;5.902;2023-03-14T03:58:00;98749.53;;;10.91;80.62
38466;BME280;24244;51.950;5.902;2023-03-14T04:00:29;98740.50;;;10.92;80.60
38466;BME280;24244;51.950;5.902;2023-03-14T04:02:56;98741.53;;;10.91;80.69
38466;BME280;24244;51.950;5.902;2023-03-14T04:05:24;98745.81;;;10.92;80.87
38466;BME280;24244;51.950;5.902;2023-03-14T04:07:54;98743.16;;;10.92;80.67
38466;BME280;24244;51.950;5.902;2023-03-14T04:10:24;98744.78;;;10.93;80.60
38466;BME280;24244;51.950;5.902;2023-03-14T04:12:51;98742.13;;;10.93;80.61
38466;BME280;24244;51.950;5.902;2023-03-14T04:15:18;98734.16;;;10.93;80.35
38466;BME280;24244;51.950;5.902;2023-03-14T04:17:45;98736.53;;;10.95;80.49
38466;BME280;24244;51.950;5.902;2023-03-14T04:20:12;98730.19;;;10.96;80.58
38466;BME280;24244;51.950;5.902;2023-03-14T04:22:40;98723.25;;;10.95;80.73
38466;BME280;24244;51.950;5.902;2023-03-14T04:25:14;98728.34;;;10.96;80.55
38466;BME280;24244;51.950;5.902;2023-03-14T04:27:46;98727.31;;;10.97;80.70
38466;BME280;24244;51.950;5.902;2023-03-14T04:30:14;98731.81;;;10.97;80.64
38466;BME280;24244;51.950;5.902;2023-03-14T04:32:41;98720.13;;;10.98;80.29
38466;BME280;24244;51.950;5.902;2023-03-14T04:35:09;98723.59;;;10.98;80.56
38466;BME280;24244;51.950;5.902;2023-03-14T04:37:35;98720.72;;;11.00;80.29
38466;BME280;24244;51.950;5.902;2023-03-14T04:40:03;98727.06;;;10.99;80.64
38466;BME280;24244;51.950;5.902;2023-03-14T04:42:33;98712.75;;;11.00;80.30
38466;BME280;24244;51.950;5.902;2023-03-14T04:45:01;98719.66;;;11.01;80.40
38466;BME280;24244;51.950;5.902;2023-03-14T04:47:29;98719.66;;;11.01;80.42
38466;BME280;24244;51.950;5.902;2023-03-14T04:49:55;98716.44;;;10.99;80.31
38466;BME280;24244;51.950;5.902;2023-03-14T04:52:22;98712.75;;;11.00;80.21
38466;BME280;24244;51.950;5.902;2023-03-14T04:54:51;98712.75;;;11.00;80.34
38466;BME280;24244;51.950;5.902;2023-03-14T04:57:18;98709.03;;;11.01;80.51
38466;BME280;24244;51.950;5.902;2023-03-14T04:59:46;98710.09;;;11.00;80.28
38466;BME280;24244;51.950;5.902;2023-03-14T05:02:16;98710.63;;;11.02;80.11
38466;BME280;24244;51.950;5.902;2023-03-14T05:04:50;98717.56;;;11.03;79.91
38466;BME280;24244;51.950;5.902;2023-03-14T05:07:19;98718.59;;;11.02;80.22
38466;BME280;24244;51.950;5.902;2023-03-14T05:09:48;98710.63;;;11.02;80.02
38466;BME280;24244;51.950;5.902;2023-03-14T05:12:16;98703.72;;;11.01;80.10
38466;BME280;24244;51.950;5.902;2023-03-14T05:14:45;98702.09;;;11.00;80.06
38466;BME280;24244;51.950;5.902;2023-03-14T05:17:15;98711.13;;;10.99;80.29
38466;BME280;24244;51.950;5.902;2023-03-14T05:19:46;98706.63;;;10.99;80.22
38466;BME280;24244;51.950;5.902;2023-03-14T05:22:15;98703.72;;;11.01;80.21
38466;BME280;24244;51.950;5.902;2023-03-14T05:24:43;98696.78;;;11.00;80.14
38466;BME280;24244;51.950;5.902;2023-03-14T05:27:11;98705.81;;;10.99;80.14
38466;BME280;24244;51.950;5.902;2023-03-14T05:29:38;98703.72;;;11.01;80.02
38466;BME280;24244;51.950;5.902;2023-03-14T05:32:10;98703.16;;;10.99;80.19
38466;BME280;24244;51.950;5.902;2023-03-14T05:34:45;98706.84;;;10.98;80.15
38466;BME280;24244;51.950;5.902;2023-03-14T05:37:16;98705.81;;;10.99;80.10
38466;BME280;24244;51.950;5.902;2023-03-14T05:39:48;98695.16;;;10.99;80.36
38466;BME280;24244;51.950;5.902;2023-03-14T05:42:15;98694.38;;;10.98;80.28
38466;BME280;24244;51.950;5.902;2023-03-14T05:44:42;98693.56;;;10.98;80.22
38466;BME280;24244;51.950;5.902;2023-03-14T05:47:09;98695.63;;;10.96;80.32
38466;BME280;24244;51.950;5.902;2023-03-14T05:49:36;98689.78;;;10.94;80.77
38466;BME280;24244;51.950;5.902;2023-03-14T05:52:03;98690.56;;;10.94;80.44
38466;BME280;24244;51.950;5.902;2023-03-14T05:54:32;98691.63;;;10.93;80.96
38466;BME280;24244;51.950;5.902;2023-03-14T05:56:59;98691.63;;;10.93;80.94
38466;BME280;24244;51.950;5.902;2023-03-14T05:59:26;98694.50;;;10.92;80.88
38466;BME280;24244;51.950;5.902;2023-03-14T06:01:53;98689.19;;;10.92;80.95
38466;BME280;24244;51.950;5.902;2023-03-14T06:04:19;98694.50;;;10.92;80.81
38466;BME280;24244;51.950;5.902;2023-03-14T06:06:46;98697.41;;;10.90;80.87
38466;BME280;24244;51.950;5.902;2023-03-14T06:09:13;98692.91;;;10.91;81.15
38466;BME280;24244;51.950;5.902;2023-03-14T06:11:41;98691.28;;;10.90;81.13
38466;BME280;24244;51.950;5.902;2023-03-14T06:14:09;98690.69;;;10.88;81.68
38466;BME280;24244;51.950;5.902;2023-03-14T06:16:36;98693.13;;;10.89;81.18
38466;BME280;24244;51.950;5.902;2023-03-14T06:19:03;98700.06;;;10.90;81.26
38466;BME280;24244;51.950;5.902;2023-03-14T06:21:30;98694.97;;;10.89;81.79
38466;BME280;24244;51.950;5.902;2023-03-14T06:23:57;98691.50;;;10.88;81.71
38466;BME280;24244;51.950;5.902;2023-03-14T06:26:24;98696.03;;;10.88;81.60
38466;BME280;24244;51.950;5.902;2023-03-14T06:28:52;98697.88;;;10.87;81.79
38466;BME280;24244;51.950;5.902;2023-03-14T06:31:20;98690.16;;;10.86;81.72
38466;BME280;24244;51.950;5.902;2023-03-14T06:33:47;98696.50;;;10.85;81.94
38466;BME280;24244;51.950;5.902;2023-03-14T06:36:14;98699.16;;;10.85;82.18
38466;BME280;24244;51.950;5.902;2023-03-14T06:38:41;98700.22;;;10.84;82.00
38466;BME280;24244;51.950;5.902;2023-03-14T06:41:08;98701.81;;;10.85;82.39
38466;BME280;24244;51.950;5.902;2023-03-14T06:43:35;98701.25;;;10.83;82.35
38466;BME280;24244;51.950;5.902;2023-03-14T06:46:03;98694.31;;;10.82;82.29
38466;BME280;24244;51.950;5.902;2023-03-14T06:48:30;98692.47;;;10.82;82.41
38466;BME280;24244;51.950;5.902;2023-03-14T06:50:57;98699.63;;;10.82;82.50
38466;BME280;24244;51.950;5.902;2023-03-14T06:53:24;98691.88;;;10.80;82.78
38466;BME280;24244;51.950;5.902;2023-03-14T06:55:51;98692.69;;;10.81;82.89
38466;BME280;24244;51.950;5.902;2023-03-14T06:58:18;98698.00;;;10.81;83.31
38466;BME280;24244;51.950;5.902;2023-03-14T07:00:46;98697.19;;;10.80;83.15
38466;BME280;24244;51.950;5.902;2023-03-14T07:03:14;98700.94;;;10.79;83.61
38466;BME280;24244;51.950;5.902;2023-03-14T07:05:41;98697.47;;;10.79;83.55
38466;BME280;24244;51.950;5.902;2023-03-14T07:08:08;98711.78;;;10.78;83.96
38466;BME280;24244;51.950;5.902;2023-03-14T07:10:36;98708.09;;;10.79;83.89
38466;BME280;24244;51.950;5.902;2023-03-14T07:13:03;98699.88;;;10.80;84.21
38466;BME280;24244;51.950;5.902;2023-03-14T07:15:29;98708.91;;;10.79;84.01
38466;BME280;24244;51.950;5.902;2023-03-14T07:17:57;98703.09;;;10.82;84.15
38466;BME280;24244;51.950;5.902;2023-03-14T07:20:25;98716.38;;;10.82;84.30
38466;BME280;24244;51.950;5.902;2023-03-14T07:22:52;98727.81;;;10.83;84.51
38466;BME280;24244;51.950;5.902;2023-03-14T07:25:18;98727.81;;;10.83;84.67
38466;BME280;24244;51.950;5.902;2023-03-14T07:27:46;98742.72;;;10.84;84.60
38466;BME280;24244;51.950;5.902;2023-03-14T07:30:14;98789.31;;;10.86;84.53
38466;BME280;24244;51.950;5.902;2023-03-14T07:32:44;98792.78;;;10.87;84.76
38466;BME280;24244;51.950;5.902;2023-03-14T07:35:10;98793.22;;;10.84;85.13
38466;BME280;24244;51.950;5.902;2023-03-14T07:37:40;98803.06;;;10.83;85.05
38466;BME280;24244;51.950;5.902;2023-03-14T07:40:08;98811.47;;;10.80;84.78
38466;BME280;24244;51.950;5.902;2023-03-14T07:42:37;98821.22;;;10.75;84.45
38466;BME280;24244;51.950;5.902;2023-03-14T07:45:04;98837.38;;;10.73;84.40
38466;BME280;24244;51.950;5.902;2023-03-14T07:47:33;98847.44;;;10.71;84.54
38466;BME280;24244;51.950;5.902;2023-03-14T07:50:01;98857.72;;;10.68;84.41
38466;BME280;24244;51.950;5.902;2023-03-14T07:52:28;98870.91;;;10.63;84.54
38466;BME280;24244;51.950;5.902;2023-03-14T07:54:56;98874.72;;;10.55;84.28
38466;BME280;24244;51.950;5.902;2023-03-14T07:57:23;98875.06;;;10.47;84.22
38466;BME280;24244;51.950;5.902;2023-03-14T07:59:50;98879.91;;;10.38;84.49
38466;BME280;24244;51.950;5.902;2023-03-14T08:02:17;98890.44;;;10.33;84.24
38466;BME280;24244;51.950;5.902;2023-03-14T08:04:46;98897.81;;;10.31;84.48
38466;BME280;24244;51.950;5.902;2023-03-14T08:07:13;98911.56;;;10.28;84.13
38466;BME280;24244;51.950;5.902;2023-03-14T08:09:40;98919.16;;;10.25;84.30
38466;BME280;24244;51.950;5.902;2023-03-14T08:12:08;98924.94;;;10.22;84.22
38466;BME280;24244;51.950;5.902;2023-03-14T08:14:35;98931.38;;;10.14;84.23
38466;BME280;24244;51.950;5.902;2023-03-14T08:17:02;98948.06;;;10.03;83.99
38466;BME280;24244;51.950;5.902;2023-03-14T08:19:29;98956.59;;;9.93;83.91
38466;BME280;24244;51.950;5.902;2023-03-14T08:21:57;98964.88;;;9.85;84.38
38466;BME280;24244;51.950;5.902;2023-03-14T08:24:23;98966.00;;;9.77;84.41
38466;BME280;24244;51.950;5.902;2023-03-14T08:26:50;98984.44;;;9.72;84.22
38466;BME280;24244;51.950;5.902;2023-03-14T08:29:18;98989.13;;;9.70;84.42
38466;BME280;24244;51.950;5.902;2023-03-14T08:31:45;98993.03;;;9.68;84.81
38466;BME280;24244;51.950;5.902;2023-03-14T08:34:12;99000.19;;;9.67;84.31
38466;BME280;24244;51.950;5.902;2023-03-14T08:36:39;99000.44;;;9.66;84.01
38466;BME280;24244;51.950;5.902;2023-03-14T08:39:06;99008.59;;;9.64;84.09
38466;BME280;24244;51.950;5.902;2023-03-14T08:41:34;99026.78;;;9.61;84.35
38466;BME280;24244;51.950;5.902;2023-03-14T08:44:06;99045.81;;;9.58;84.02
38466;BME280;24244;51.950;5.902;2023-03-14T08:46:35;99065.31;;;9.45;84.17
38466;BME280;24244;51.950;5.902;2023-03-14T08:49:01;99076.25;;;9.37;84.15
38466;BME280;24244;51.950;5.902;2023-03-14T08:51:28;99096.72;;;9.30;83.91
38466;BME280;24244;51.950;5.902;2023-03-14T08:53:55;99113.31;;;9.19;84.23
38466;BME280;24244;51.950;5.902;2023-03-14T08:56:22;99128.25;;;9.13;84.02
38466;BME280;24244;51.950;5.902;2023-03-14T08:58:51;99137.28;;;9.06;84.07
38466;BME280;24244;51.950;5.902;2023-03-14T09:01:18;99137.19;;;8.94;83.96
38466;BME280;24244;51.950;5.902;2023-03-14T09:03:48;99156.59;;;8.81;84.06
38466;BME280;24244;51.950;5.902;2023-03-14T09:06:16;99154.25;;;8.73;84.21
38466;BME280;24244;51.950;5.902;2023-03-14T09:08:45;99176.88;;;8.69;84.08
38466;BME280;24244;51.950;5.902;2023-03-14T09:11:12;99177.91;;;8.61;83.89
38466;BME280;24244;51.950;5.902;2023-03-14T09:13:40;99198.31;;;8.54;83.82
38466;BME280;24244;51.950;5.902;2023-03-14T09:16:08;99213.88;;;8.44;84.08
38466;BME280;24244;51.950;5.902;2023-03-14T09:18:38;99233.84;;;8.34;83.81
38466;BME280;24244;51.950;5.902;2023-03-14T09:21:09;99244.25;;;8.22;83.48
38466;BME280;24244;51.950;5.902;2023-03-14T09:23:35;99250.59;;;8.14;83.63
38466;BME280;24244;51.950;5.902;2023-03-14T09:26:02;99263.00;;;8.07;83.71
38466;BME280;24244;51.950;5.902;2023-03-14T09:28:29;99269.13;;;8.01;83.52
38466;BME280;24244;51.950;5.902;2023-03-14T09:30:57;99283.78;;;7.97;83.37
38466;BME280;24244;51.950;5.902;2023-03-14T09:33:25;99289.31;;;7.96;83.49
38466;BME280;24244;51.950;5.902;2023-03-14T09:35:51;99305.97;;;7.96;83.24
38466;BME280;24244;51.950;5.902;2023-03-14T09:38:20;99316.16;;;7.93;82.88
38466;BME280;24244;51.950;5.902;2023-03-14T09:40:47;99351.75;;;7.90;82.75
38466;BME280;24244;51.950;5.902;2023-03-14T09:43:15;99334.06;;;7.91;82.46
38466;BME280;24244;51.950;5.902;2023-03-14T09:45:45;99348.53;;;7.88;82.56
38466;BME280;24244;51.950;5.902;2023-03-14T09:48:15;99361.94;;;7.86;81.89
38466;BME280;24244;51.950;5.902;2023-03-14T09:50:45;99360.50;;;7.84;82.05
38466;BME280;24244;51.950;5.902;2023-03-14T09:53:17;99374.97;;;7.88;82.13
38466;BME280;24244;51.950;5.902;2023-03-14T09:55:47;99377.63;;;7.88;81.98
38466;BME280;24244;51.950;5.902;2023-03-14T09:58:18;99387.59;;;7.93;81.66
38466;BME280;24244;51.950;5.902;2023-03-14T10:00:45;99407.94;;;7.92;81.73
38466;BME280;24244;51.950;5.902;2023-03-14T10:03:22;99415.69;;;7.94;81.50
38466;BME280;24244;51.950;5.902;2023-03-14T10:05:49;99423.41;;;7.89;81.09
38466;BME280;24244;51.950;5.902;2023-03-14T10:08:16;99441.50;;;7.85;81.08
38466;BME280;24244;51.950;5.902;2023-03-14T10:10:43;99454.34;;;7.81;81.08
38466;BME280;24244;51.950;5.902;2023-03-14T10:13:15;99466.75;;;7.81;80.78
38466;BME280;24244;51.950;5.902;2023-03-14T10:15:51;99461.44;;;7.81;80.64
38466;BME280;24244;51.950;5.902;2023-03-14T10:18:19;99465.28;;;7.78;80.38
38466;BME280;24244;51.950;5.902;2023-03-14T10:20:47;99483.22;;;7.83;80.05
38466;BME280;24244;51.950;5.902;2023-03-14T10:23:25;99497.66;;;7.80;79.89
38466;BME280;24244;51.950;5.902;2023-03-14T10:26:05;99503.78;;;7.81;79.72
38466;BME280;24244;51.950;5.902;2023-03-14T10:28:38;99517.59;;;7.83;79.73
38466;BME280;24244;51.950;5.902;2023-03-14T10:31:05;99525.53;;;7.83;79.52
38466;BME280;24244;51.950;5.902;2023-03-14T10:33:34;99539.38;;;7.85;79.63
38466;BME280;24244;51.950;5.902;2023-03-14T10:36:03;99553.44;;;7.85;79.04
38466;BME280;24244;51.950;5.902;2023-03-14T10:38:32;99560.97;;;7.89;79.21
38466;BME280;24244;51.950;5.902;2023-03-14T10:41:00;99567.50;;;7.93;79.03
38466;BME280;24244;51.950;5.902;2023-03-14T10:43:32;99582.16;;;7.95;78.59
38466;BME280;24244;51.950;5.902;2023-03-14T10:46:05;99587.47;;;7.95;78.37
38466;BME280;24244;51.950;5.902;2023-03-14T10:48:34;99597.00;;;7.96;78.30
38466;BME280;24244;51.950;5.902;2023-03-14T10:51:05;99610.66;;;8.00;78.35
38466;BME280;24244;51.950;5.902;2023-03-14T10:53:40;99615.97;;;8.00;78.43
38466;BME280;24244;51.950;5.902;2023-03-14T10:56:12;99642.03;;;8.03;78.10
38466;BME280;24244;51.950;5.902;2023-03-14T10:58:41;99664.81;;;8.04;78.12
38466;BME280;24244;51.950;5.902;2023-03-14T11:01:21;99664.78;;;7.97;77.44
38466;BME280;24244;51.950;5.902;2023-03-14T11:03:55;99673.97;;;7.95;77.65
38466;BME280;24244;51.950;5.902;2023-03-14T11:06:33;99686.13;;;7.89;77.66
38466;BME280;24244;51.950;5.902;2023-03-14T11:09:10;99708.88;;;7.83;77.95
38466;BME280;24244;51.950;5.902;2023-03-14T11:11:40;99719.19;;;7.72;77.92
38466;BME280;24244;51.950;5.902;2023-03-14T11:14:16;99744.28;;;7.55;78.49
38466;BME280;24244;51.950;5.902;2023-03-14T11:16:53;99745.81;;;7.42;78.94
38466;BME280;24244;51.950;5.902;2023-03-14T11:19:32;99746.56;;;7.36;79.35
38466;BME280;24244;51.950;5.902;2023-03-14T11:22:10;99751.88;;;7.36;79.34
38466;BME280;24244;51.950;5.902;2023-03-14T11:24:48;99764.44;;;7.34;79.70
38466;BME280;24244;51.950;5.902;2023-03-14T11:27:22;99773.00;;;7.36;79.81
38466;BME280;24244;51.950;5.902;2023-03-14T11:29:55;99774.66;;;7.37;79.73
38466;BME280;24244;51.950;5.902;2023-03-14T11:32:35;99801.09;;;7.37;79.66
38466;BME280;24244;51.950;5.902;2023-03-14T11:35:12;99810.03;;;7.36;79.55
38466;BME280;24244;51.950;5.902;2023-03-14T11:37:46;99810.03;;;7.36;79.57
38466;BME280;24244;51.950;5.902;2023-03-14T11:40:16;99813.31;;;7.38;79.59
38466;BME280;24244;51.950;5.902;2023-03-14T11:42:48;99815.94;;;7.38;79.56
38466;BME280;24244;51.950;5.902;2023-03-14T11:45:22;99826.13;;;7.41;79.24
38466;BME280;24244;51.950;5.902;2023-03-14T11:47:56;99831.66;;;7.46;79.08
38466;BME280;24244;51.950;5.902;2023-03-14T11:50:27;99832.75;;;7.52;78.92
38466;BME280;24244;51.950;5.902;2023-03-14T11:52:58;99837.28;;;7.58;78.71
38466;BME280;24244;51.950;5.902;2023-03-14T11:55:32;99850.56;;;7.65;78.29
38466;BME280;24244;51.950;5.902;2023-03-14T11:58:02;99849.34;;;7.67;78.19
38466;BME280;24244;51.950;5.902;2023-03-14T12:00:30;99853.09;;;7.73;77.85
38466;BME280;24244;51.950;5.902;2023-03-14T12:03:02;99861.63;;;7.75;77.05
38466;BME280;24244;51.950;5.902;2023-03-14T12:05:39;99877.50;;;7.75;76.74
38466;BME280;24244;51.950;5.902;2023-03-14T12:08:38;99872.66;;;7.78;76.29
38466;BME280;24244;51.950;5.902;2023-03-14T12:11:11;99876.56;;;7.82;75.47
38466;BME280;24244;51.950;5.902;2023-03-14T12:13:40;99895.53;;;7.86;75.13
38466;BME280;24244;51.950;5.902;2023-03-14T12:16:31;99903.34;;;7.94;74.84
38466;BME280;24244;51.950;5.902;2023-03-14T12:22:13;99906.72;;;8.09;73.77
38466;BME280;24244;51.950;5.902;2023-03-14T12:24:48;99922.03;;;8.14;73.37
38466;BME280;24244;51.950;5.902;2023-03-14T12:27:40;99932.84;;;8.19;73.01
38466;BME280;24244;51.950;5.902;2023-03-14T12:30:17;99936.56;;;8.24;72.75
38466;BME280;24244;51.950;5.902;2023-03-14T12:38:52;99951.75;;;8.31;69.98
38466;BME280;24244;51.950;5.902;2023-03-14T12:41:28;99946.03;;;8.34;70.20
38466;BME280;24244;51.950;5.902;2023-03-14T12:43:58;99964.22;;;8.37;70.00
38466;BME280;24244;51.950;5.902;2023-03-14T12:46:43;99960.97;;;8.41;68.58
38466;BME280;24244;51.950;5.902;2023-03-14T12:49:10;99957.75;;;8.46;68.46
38466;BME280;24244;51.950;5.902;2023-03-14T12:51:39;99973.72;;;8.52;68.36
38466;BME280;24244;51.950;5.902;2023-03-14T12:54:27;99983.72;;;8.57;67.61
38466;BME280;24244;51.950;5.902;2023-03-14T12:57:15;99999.22;;;8.60;67.06
38466;BME280;24244;51.950;5.902;2023-03-14T12:59:50;99986.59;;;8.62;67.42
38466;BME280;24244;51.950;5.902;2023-03-14T13:02:23;99987.59;;;8.61;66.64
38466;BME280;24244;51.950;5.902;2023-03-14T13:04:54;100011.09;;;8.64;66.89
38466;BME280;24244;51.950;5.902;2023-03-14T13:07:33;100011.28;;;8.62;65.80
38466;BME280;24244;51.950;5.902;2023-03-14T13:10:05;100011.84;;;8.58;65.30
38466;BME280;24244;51.950;5.902;2023-03-14T13:12:47;100022.25;;;8.59;65.40
38466;BME280;24244;51.950;5.902;2023-03-14T13:15:19;100034.28;;;8.62;63.84
38466;BME280;24244;51.950;5.902;2023-03-14T13:17:48;100037.34;;;8.59;64.33
38466;BME280;24244;51.950;5.902;2023-03-14T13:20:19;100041.00;;;8.58;64.37
38466;BME280;24244;51.950;5.902;2023-03-14T13:22:49;100040.34;;;8.56;63.28
38466;BME280;24244;51.950;5.902;2023-03-14T13:25:19;100054.41;;;8.56;60.99
38466;BME280;24244;51.950;5.902;2023-03-14T13:27:48;100064.38;;;8.54;62.64
38466;BME280;24244;51.950;5.902;2023-03-14T13:30:17;100061.34;;;8.57;62.99